Time;durP1;ratioP1;P1;durP2;ratioP2;P2;SDS_P1;SDS_P2;PMS_P1;PMS_P2;Temp;Humidity;BMP_temperature;BMP_pressure;BME280_temperature;BME280_humidity;BME280_pressure;Samples;Min_cycle;Max_cycle;Signal;HPM_P1;HPM_P2
2022/06/18 00:01:34;;;;;;;3.40;1.70;;;21.00;97.00;;;;;;5035286;28;20199;-67
2022/06/18 00:04:00;;;;;;;2.55;1.63;;;21.00;97.00;;;;;;5033920;28;20176;-68
2022/06/18 00:06:28;;;;;;;3.75;1.90;;;20.90;97.20;;;;;;5034718;28;20376;-68
2022/06/18 00:08:54;;;;;;;2.50;2.28;;;20.90;97.30;;;;;;5035236;28;20165;-67
2022/06/18 00:14:04;;;;;;;2.22;1.63;;;20.70;97.80;;;;;;5034727;28;20200;-68
2022/06/18 00:16:31;;;;;;;2.10;1.65;;;20.60;98.20;;;;;;5034867;28;20185;-68
2022/06/18 00:18:57;;;;;;;2.38;1.77;;;20.70;98.60;;;;;;5034881;28;20160;-68
2022/06/18 00:21:25;;;;;;;4.28;2.08;;;20.70;99.50;;;;;;5035244;28;20242;-67
2022/06/18 00:23:50;;;;;;;2.20;1.88;;;20.60;99.30;;;;;;5034478;28;20165;-67
2022/06/18 00:26:16;;;;;;;1.90;1.80;;;20.50;99.60;;;;;;5034281;28;20551;-68
2022/06/18 00:28:42;;;;;;;4.60;1.73;;;20.50;99.90;;;;;;5034820;28;20184;-68
2022/06/18 00:31:07;;;;;;;2.08;1.65;;;20.40;99.90;;;;;;5034889;28;20177;-69
2022/06/18 00:33:36;;;;;;;2.85;1.52;;;20.30;99.90;;;;;;5034808;28;20172;-68
2022/06/18 00:36:04;;;;;;;2.45;1.73;;;20.50;99.90;;;;;;5034783;28;20184;-66
2022/06/18 00:38:34;;;;;;;2.47;1.60;;;20.40;99.90;;;;;;5035368;28;20254;-68
2022/06/18 00:41:01;;;;;;;1.95;1.50;;;20.20;99.90;;;;;;5035710;28;20203;-68
2022/06/18 00:43:32;;;;;;;3.97;1.95;;;20.20;99.90;;;;;;5041764;28;20157;-69
2022/06/18 00:46:13;;;;;;;5.82;1.50;;;20.20;99.90;;;;;;5045423;28;20153;-70
2022/06/18 00:48:42;;;;;;;3.30;1.67;;;20.10;99.90;;;;;;5045539;28;20175;-67
2022/06/18 00:51:34;;;;;;;2.10;1.60;;;20.10;99.90;;;;;;5042832;28;20507;-67
2022/06/18 00:54:08;;;;;;;2.00;1.58;;;20.00;99.90;;;;;;5033854;28;20165;-67
2022/06/18 00:56:51;;;;;;;2.38;1.55;;;20.00;99.90;;;;;;5033830;28;20184;-67
2022/06/18 00:59:27;;;;;;;1.65;1.50;;;20.00;99.90;;;;;;5034510;28;20211;-68
2022/06/18 01:01:55;;;;;;;4.80;1.88;;;20.00;99.90;;;;;;5034128;28;20665;-68
2022/06/18 01:04:30;;;;;;;2.00;1.80;;;19.90;99.90;;;;;;5033966;28;20207;-67
2022/06/18 01:07:17;;;;;;;1.67;1.58;;;19.90;99.90;;;;;;5032711;28;20180;-67
2022/06/18 01:09:47;;;;;;;2.42;1.70;;;19.90;99.90;;;;;;5033353;28;20180;-68
2022/06/18 01:12:12;;;;;;;1.45;1.35;;;19.80;99.90;;;;;;5033633;28;20555;-67
2022/06/18 01:14:39;;;;;;;2.13;1.60;;;19.60;99.90;;;;;;5034432;28;20173;-67
2022/06/18 01:17:06;;;;;;;1.95;1.52;;;19.60;99.90;;;;;;5033894;28;20161;-67
2022/06/18 01:19:38;;;;;;;2.05;1.65;;;19.60;99.90;;;;;;5034638;28;20199;-68
2022/06/18 01:22:17;;;;;;;2.70;1.77;;;19.70;99.90;;;;;;5038548;28;20165;-68
2022/06/18 01:24:44;;;;;;;3.42;1.85;;;19.60;99.90;;;;;;5040284;28;20169;-67
2022/06/18 01:27:10;;;;;;;2.17;1.98;;;19.50;99.90;;;;;;5041523;28;20163;-68
2022/06/18 01:29:37;;;;;;;2.75;2.00;;;19.50;99.90;;;;;;5033794;28;20172;-67
2022/06/18 01:32:05;;;;;;;4.45;2.45;;;19.40;99.90;;;;;;5041965;28;20161;-68
2022/06/18 01:34:31;;;;;;;4.75;1.77;;;19.30;99.90;;;;;;5045210;28;20260;-65
2022/06/18 01:37:02;;;;;;;1.90;1.67;;;19.20;99.90;;;;;;5045742;28;20161;-72
2022/06/18 01:39:35;;;;;;;2.55;1.90;;;19.40;99.90;;;;;;5043935;28;20263;-69
2022/06/18 01:42:14;;;;;;;3.10;1.73;;;19.40;99.90;;;;;;5045391;28;20165;-67
2022/06/18 01:44:55;;;;;;;4.32;1.80;;;19.30;99.90;;;;;;5042721;28;20173;-67
2022/06/18 01:47:27;;;;;;;2.65;1.85;;;19.20;99.90;;;;;;5034634;28;20505;-67
2022/06/18 01:49:59;;;;;;;2.15;1.73;;;19.20;99.90;;;;;;5034402;28;20207;-69
2022/06/18 01:52:30;;;;;;;2.03;1.85;;;19.10;99.90;;;;;;5036685;28;20161;-70
2022/06/18 01:55:00;;;;;;;2.28;1.67;;;19.00;99.90;;;;;;5037246;28;20244;-66
2022/06/18 01:57:35;;;;;;;3.85;1.60;;;19.00;99.90;;;;;;5037315;28;20204;-66
2022/06/18 02:00:22;;;;;;;5.20;1.90;;;18.90;99.90;;;;;;5037819;28;20187;-67
2022/06/18 02:02:48;;;;;;;3.00;1.60;;;18.90;99.90;;;;;;5037944;28;20178;-67
2022/06/18 02:05:15;;;;;;;4.10;1.60;;;18.90;99.90;;;;;;5037372;28;20282;-68
2022/06/18 02:07:43;;;;;;;1.92;1.63;;;18.80;99.90;;;;;;5037507;28;20256;-67
2022/06/18 02:10:25;;;;;;;3.13;1.75;;;18.70;99.90;;;;;;5038192;28;20161;-67
2022/06/18 02:12:52;;;;;;;3.85;1.80;;;18.70;99.90;;;;;;5038986;28;20168;-69
2022/06/18 02:15:24;;;;;;;1.70;1.60;;;18.80;99.90;;;;;;5041261;28;20608;-68
2022/06/18 02:17:50;;;;;;;2.72;1.60;;;18.80;99.90;;;;;;5045144;28;20157;-68
2022/06/18 02:20:22;;;;;;;2.20;1.80;;;18.80;99.90;;;;;;5040989;28;20621;-68
2022/06/18 02:22:51;;;;;;;1.60;1.50;;;18.70;99.90;;;;;;5037690;28;20639;-68
2022/06/18 02:25:20;;;;;;;2.35;1.65;;;18.70;99.90;;;;;;5036599;28;20169;-69
2022/06/18 02:27:47;;;;;;;2.83;1.65;;;18.60;99.90;;;;;;5036474;28;20557;-68
2022/06/18 02:30:23;;;;;;;5.85;1.40;;;18.50;99.90;;;;;;5036527;28;20180;-68
2022/06/18 02:33:00;;;;;;;2.40;1.63;;;18.60;99.90;;;;;;5038125;28;20248;-67
2022/06/18 02:35:28;;;;;;;1.77;1.60;;;18.50;99.90;;;;;;5037024;28;20199;-67
2022/06/18 02:37:55;;;;;;;2.13;1.60;;;18.50;99.90;;;;;;5039214;28;20161;-68
2022/06/18 02:40:23;;;;;;;3.53;1.42;;;18.40;99.90;;;;;;5051283;28;20256;-68
2022/06/18 02:42:52;;;;;;;2.38;1.50;;;18.50;99.90;;;;;;5050175;28;20176;-68
2022/06/18 02:45:19;;;;;;;3.05;1.60;;;18.40;99.90;;;;;;5052296;28;20157;-67
2022/06/18 02:47:46;;;;;;;2.35;1.58;;;18.40;99.90;;;;;;5042382;28;20164;-67
2022/06/18 02:50:17;;;;;;;1.83;1.60;;;18.10;99.90;;;;;;5036283;28;20161;-67
2022/06/18 02:52:47;;;;;;;3.75;1.40;;;18.20;99.90;;;;;;5035831;28;20157;-67
2022/06/18 02:55:31;;;;;;;1.73;1.63;;;18.20;99.90;;;;;;5036278;28;20165;-67
2022/06/18 02:58:08;;;;;;;2.10;1.75;;;18.00;99.90;;;;;;5033324;28;20210;-68
2022/06/18 03:00:37;;;;;;;2.33;1.70;;;18.10;99.90;;;;;;5035644;28;20220;-66
2022/06/18 03:03:10;;;;;;;2.10;1.77;;;18.20;99.90;;;;;;5035218;28;20173;-67
2022/06/18 03:05:36;;;;;;;2.08;1.88;;;18.10;99.90;;;;;;5035093;28;20236;-66
2022/06/18 03:08:02;;;;;;;2.00;1.60;;;18.00;99.90;;;;;;5035299;28;20619;-67
2022/06/18 03:13:12;;;;;;;1.98;1.80;;;17.80;99.90;;;;;;5035604;28;20163;-68
2022/06/18 03:15:38;;;;;;;2.22;1.90;;;17.90;99.90;;;;;;5035749;28;20503;-68
2022/06/18 03:18:06;;;;;;;2.33;2.05;;;17.90;99.90;;;;;;5035718;28;20214;-68
2022/06/18 03:20:54;;;;;;;2.72;2.10;;;17.80;99.90;;;;;;5034770;28;20188;-67
2022/06/18 03:23:23;;;;;;;3.92;2.10;;;17.90;99.90;;;;;;5034389;28;20177;-67
2022/06/18 03:25:49;;;;;;;3.60;1.98;;;17.90;99.90;;;;;;5033783;28;20185;-65
2022/06/18 03:28:15;;;;;;;3.42;2.25;;;17.90;99.90;;;;;;5035736;28;20668;-68
2022/06/18 03:30:44;;;;;;;3.40;2.00;;;17.90;99.90;;;;;;5034286;28;20199;-68
2022/06/18 03:33:10;;;;;;;2.40;1.92;;;17.80;99.90;;;;;;5035543;28;20188;-67
2022/06/18 03:35:37;;;;;;;2.95;1.98;;;17.80;99.90;;;;;;5035453;28;20170;-66
2022/06/18 03:38:03;;;;;;;7.35;2.15;;;17.70;99.90;;;;;;5035024;28;20157;-65
2022/06/18 03:40:29;;;;;;;4.20;1.98;;;17.80;99.90;;;;;;5035193;28;20655;-67
2022/06/18 03:42:55;;;;;;;3.50;2.17;;;17.80;99.90;;;;;;5034787;28;20173;-66
2022/06/18 03:45:21;;;;;;;2.38;2.10;;;17.70;99.90;;;;;;5035008;28;20202;-67
2022/06/18 03:47:48;;;;;;;2.13;1.83;;;17.70;99.90;;;;;;5034964;28;20483;-65
2022/06/18 03:50:17;;;;;;;3.17;2.05;;;17.70;99.90;;;;;;5035062;28;20165;-66
2022/06/18 03:52:42;;;;;;;6.60;2.30;;;17.50;99.90;;;;;;5035156;28;20196;-67
2022/06/18 03:55:13;;;;;;;2.67;1.85;;;17.60;99.90;;;;;;5034962;28;20514;-66
2022/06/18 03:57:39;;;;;;;1.73;1.63;;;17.60;99.90;;;;;;5035296;28;20184;-67
2022/06/18 04:00:14;;;;;;;2.13;1.77;;;17.70;99.90;;;;;;5035291;28;20228;-68
2022/06/18 04:02:40;;;;;;;2.60;2.00;;;17.80;99.90;;;;;;5035507;28;20184;-66
2022/06/18 04:05:06;;;;;;;2.60;1.90;;;17.80;99.90;;;;;;5034296;28;20239;-66
2022/06/18 04:07:31;;;;;;;4.85;2.00;;;17.80;99.90;;;;;;5035206;28;20200;-66
2022/06/18 04:10:01;;;;;;;2.08;1.88;;;17.90;99.90;;;;;;5035140;28;20211;-67
2022/06/18 04:12:27;;;;;;;2.30;2.10;;;17.90;99.90;;;;;;5034825;28;20157;-65
2022/06/18 04:14:54;;;;;;;4.93;2.10;;;17.80;99.90;;;;;;5033054;28;20732;-67
2022/06/18 04:17:21;;;;;;;2.88;2.20;;;17.90;99.90;;;;;;5034335;28;20205;-67
2022/06/18 04:19:47;;;;;;;2.30;2.10;;;18.10;99.90;;;;;;5034369;28;20538;-67
2022/06/18 04:22:13;;;;;;;3.85;1.90;;;18.10;99.90;;;;;;5034409;28;20252;-67
2022/06/18 04:24:39;;;;;;;2.08;1.70;;;18.10;99.90;;;;;;5034375;28;20248;-67
2022/06/18 04:27:06;;;;;;;2.20;1.90;;;18.20;99.90;;;;;;5034742;28;20175;-68
2022/06/18 04:29:32;;;;;;;2.20;1.70;;;18.20;99.90;;;;;;5035334;28;20709;-66
2022/06/18 04:31:59;;;;;;;3.35;1.90;;;18.30;99.90;;;;;;5036861;28;20632;-68
2022/06/18 04:34:25;;;;;;;3.97;1.70;;;18.40;99.90;;;;;;5034183;28;20629;-67
2022/06/18 04:36:51;;;;;;;2.85;1.77;;;18.50;99.90;;;;;;5033802;28;20157;-67
2022/06/18 04:39:17;;;;;;;3.00;2.50;;;18.60;99.90;;;;;;5033944;28;20197;-67
2022/06/18 04:41:43;;;;;;;3.08;2.10;;;18.60;99.90;;;;;;5033969;28;20506;-67
2022/06/18 04:44:08;;;;;;;2.90;1.80;;;18.70;99.90;;;;;;5033560;28;20153;-66
2022/06/18 04:46:34;;;;;;;2.42;1.83;;;18.70;99.90;;;;;;5033685;28;20168;-67
2022/06/18 04:49:00;;;;;;;4.28;2.20;;;18.70;99.90;;;;;;5033828;28;20590;-68
2022/06/18 04:51:26;;;;;;;2.10;1.73;;;18.80;99.90;;;;;;5033695;28;20263;-68
2022/06/18 04:53:52;;;;;;;3.38;1.90;;;19.00;99.90;;;;;;5033823;28;20168;-68
2022/06/18 04:56:17;;;;;;;2.80;2.03;;;19.00;99.90;;;;;;5033258;28;20165;-68
2022/06/18 04:58:43;;;;;;;3.00;1.75;;;19.10;99.90;;;;;;5033844;28;20230;-67
2022/06/18 05:01:15;;;;;;;2.50;1.83;;;19.20;99.90;;;;;;5033408;28;20216;-66
2022/06/18 05:03:40;;;;;;;2.95;1.85;;;19.30;99.90;;;;;;5033533;28;20177;-66
2022/06/18 05:06:06;;;;;;;4.57;1.92;;;19.40;99.90;;;;;;5033901;28;20558;-67
2022/06/18 05:08:31;;;;;;;5.68;1.90;;;19.50;99.90;;;;;;5033492;28;20248;-67
2022/06/18 05:10:57;;;;;;;2.45;1.85;;;19.70;99.90;;;;;;5033042;28;20200;-66
2022/06/18 05:13:23;;;;;;;3.15;1.80;;;19.70;99.90;;;;;;5035612;28;20215;-67
2022/06/18 05:15:52;;;;;;;2.08;1.70;;;19.80;99.90;;;;;;5038203;28;20201;-68
2022/06/18 05:18:19;;;;;;;1.65;1.55;;;19.90;99.90;;;;;;5036746;28;20164;-67
2022/06/18 05:20:48;;;;;;;3.38;1.80;;;20.00;99.90;;;;;;5033206;28;20283;-67
2022/06/18 05:23:14;;;;;;;2.03;1.55;;;20.10;99.90;;;;;;5033411;28;20157;-67
2022/06/18 05:25:40;;;;;;;3.00;1.70;;;20.20;99.90;;;;;;5033892;28;20307;-68
2022/06/18 05:28:06;;;;;;;1.95;1.80;;;20.30;99.90;;;;;;5040215;28;20165;-68
2022/06/18 05:30:32;;;;;;;3.33;2.65;;;20.50;99.90;;;;;;5040864;28;20290;-68
2022/06/18 05:32:58;;;;;;;3.95;2.00;;;20.60;99.90;;;;;;5040667;28;20168;-67
2022/06/18 05:35:23;;;;;;;1.60;1.50;;;20.80;99.90;;;;;;5045029;28;20160;-68
2022/06/18 05:37:50;;;;;;;1.58;1.48;;;20.90;99.90;;;;;;5045664;28;20182;-67
2022/06/18 05:40:16;;;;;;;1.90;1.70;;;21.00;99.90;;;;;;5047047;28;20211;-68
2022/06/18 05:42:42;;;;;;;1.73;1.45;;;21.20;99.90;;;;;;5049876;28;20512;-69
2022/06/18 05:45:08;;;;;;;1.83;1.65;;;21.10;99.90;;;;;;5050560;28;20165;-69
2022/06/18 05:47:34;;;;;;;2.15;1.60;;;21.20;99.90;;;;;;5049140;28;20168;-68
2022/06/18 05:50:01;;;;;;;1.92;1.67;;;21.40;99.90;;;;;;5040096;28;20164;-67
2022/06/18 05:52:29;;;;;;;2.75;1.75;;;21.70;99.90;;;;;;5039747;28;20236;-70
2022/06/18 05:54:55;;;;;;;2.45;1.70;;;21.80;99.90;;;;;;5039574;28;20161;-71
2022/06/18 05:57:22;;;;;;;1.80;1.40;;;21.80;99.90;;;;;;5040512;28;20172;-70
2022/06/18 05:59:49;;;;;;;2.38;1.50;;;21.80;99.90;;;;;;5039289;28;20200;-72
2022/06/18 06:02:17;;;;;;;1.65;1.55;;;21.90;99.90;;;;;;5039968;28;20264;-72
2022/06/18 06:04:43;;;;;;;2.25;1.40;;;22.10;99.90;;;;;;5039451;28;20236;-72
2022/06/18 06:07:29;;;;;;;2.08;1.60;;;22.20;99.80;;;;;;5039871;28;20255;-72
2022/06/18 06:12:39;;;;;;;3.10;1.80;;;22.20;98.90;;;;;;5040127;28;20164;-70
2022/06/18 06:15:06;;;;;;;3.80;2.08;;;22.30;99.10;;;;;;5039329;28;20621;-69
2022/06/18 06:17:32;;;;;;;2.00;1.58;;;22.50;98.40;;;;;;5039178;28;20263;-71
2022/06/18 06:20:13;;;;;;;3.97;1.80;;;22.70;97.40;;;;;;5039165;28;20654;-71
2022/06/18 06:22:39;;;;;;;3.58;1.83;;;22.90;97.30;;;;;;5039780;28;20243;-71
2022/06/18 06:25:05;;;;;;;2.20;1.58;;;22.90;97.10;;;;;;5039796;28;20198;-68
2022/06/18 06:27:30;;;;;;;7.20;1.70;;;23.10;95.70;;;;;;5039629;28;20184;-71
2022/06/18 06:29:56;;;;;;;3.60;1.30;;;23.30;95.70;;;;;;5039468;28;20577;-70
2022/06/18 06:32:21;;;;;;;1.65;1.50;;;23.30;94.60;;;;;;5039577;28;20255;-72
2022/06/18 06:34:47;;;;;;;2.22;1.40;;;23.50;95.20;;;;;;5039994;28;20499;-70
2022/06/18 06:37:12;;;;;;;1.73;1.60;;;23.80;95.50;;;;;;5039991;28;20339;-70
2022/06/18 06:39:38;;;;;;;3.55;1.60;;;23.70;94.50;;;;;;5036855;28;20276;-71
2022/06/18 06:42:04;;;;;;;2.35;1.55;;;24.00;94.20;;;;;;5035104;28;20228;-72
2022/06/18 06:44:31;;;;;;;3.17;1.30;;;24.20;93.70;;;;;;5034296;28;20216;-71
2022/06/18 06:46:59;;;;;;;2.38;1.45;;;24.20;92.20;;;;;;5034451;28;20204;-70
2022/06/18 06:49:25;;;;;;;2.67;1.70;;;24.60;93.00;;;;;;5036343;28;20191;-70
2022/06/18 06:51:53;;;;;;;1.52;1.42;;;24.70;92.40;;;;;;5035643;28;20168;-69
2022/06/18 06:54:19;;;;;;;2.30;1.38;;;24.90;91.40;;;;;;5036174;28;20153;-70
2022/06/18 06:59:29;;;;;;;1.83;1.50;;;25.00;90.70;;;;;;5036137;28;20587;-70
2022/06/18 07:01:55;;;;;;;1.70;1.60;;;25.20;90.40;;;;;;5035731;28;20181;-70
2022/06/18 07:04:21;;;;;;;1.88;1.77;;;25.30;88.20;;;;;;5035684;28;20239;-71
2022/06/18 07:06:46;;;;;;;3.92;1.80;;;25.50;86.80;;;;;;5035587;28;20161;-70
2022/06/18 07:09:12;;;;;;;2.97;1.52;;;25.70;84.50;;;;;;5034650;28;20207;-72
2022/06/18 07:11:38;;;;;;;7.05;1.80;;;25.90;87.30;;;;;;5036070;28;20173;-71
2022/06/18 07:14:05;;;;;;;4.28;1.50;;;26.10;84.10;;;;;;5035498;28;20164;-70
2022/06/18 07:16:30;;;;;;;1.45;1.30;;;26.10;84.30;;;;;;5035649;28;20196;-71
2022/06/18 07:18:57;;;;;;;3.53;1.50;;;26.10;81.90;;;;;;5034693;28;20589;-70
2022/06/18 07:21:22;;;;;;;1.67;1.50;;;26.50;77.70;;;;;;5035731;28;20624;-70
2022/06/18 07:23:49;;;;;;;1.60;1.50;;;26.40;75.20;;;;;;5035574;28;20285;-70
2022/06/18 07:26:17;;;;;;;1.88;1.40;;;26.50;74.40;;;;;;5035433;28;20167;-71
2022/06/18 07:28:43;;;;;;;1.33;1.23;;;26.50;70.30;;;;;;5035271;28;20161;-71
2022/06/18 07:31:15;;;;;;;1.85;1.60;;;26.60;70.20;;;;;;5035432;28;20247;-72
2022/06/18 07:33:44;;;;;;;1.45;1.20;;;26.70;69.40;;;;;;5037437;28;20549;-70
2022/06/18 07:36:09;;;;;;;1.58;1.30;;;26.90;65.20;;;;;;5039856;28;20211;-69
2022/06/18 07:38:35;;;;;;;1.50;1.40;;;27.10;61.90;;;;;;5040356;28;20275;-68
2022/06/18 07:41:00;;;;;;;1.70;1.10;;;27.40;60.50;;;;;;5040954;28;20205;-70
2022/06/18 07:43:44;;;;;;;2.95;1.40;;;27.60;58.60;;;;;;5038367;28;20185;-72
2022/06/18 07:46:12;;;;;;;3.75;1.30;;;27.70;59.40;;;;;;5035504;28;20172;-71
2022/06/18 07:48:39;;;;;;;2.38;1.50;;;27.80;58.00;;;;;;5035340;28;20168;-70
2022/06/18 07:51:06;;;;;;;4.25;1.40;;;27.90;55.70;;;;;;5034810;28;20271;-72
2022/06/18 07:53:32;;;;;;;1.83;1.40;;;28.10;57.00;;;;;;5035069;28;20192;-70
2022/06/18 07:55:58;;;;;;;2.42;1.40;;;28.00;55.00;;;;;;5034889;28;20161;-71
2022/06/18 07:58:26;;;;;;;3.55;1.20;;;28.10;55.50;;;;;;5033939;28;20538;-71
2022/06/18 08:00:52;;;;;;;1.85;1.33;;;28.10;53.70;;;;;;5035014;28;20295;-71
2022/06/18 08:03:18;;;;;;;1.67;1.50;;;28.10;53.60;;;;;;5035439;28;20197;-71
2022/06/18 08:05:45;;;;;;;3.15;1.50;;;28.40;53.90;;;;;;5035340;28;20220;-72
2022/06/18 08:08:12;;;;;;;1.63;1.20;;;28.30;52.30;;;;;;5036432;28;20244;-70
2022/06/18 08:10:39;;;;;;;3.40;1.10;;;28.30;52.10;;;;;;5038360;28;20519;-71
2022/06/18 08:13:05;;;;;;;3.35;1.38;;;28.30;52.10;;;;;;5043437;28;20212;-72
2022/06/18 08:15:32;;;;;;;1.67;1.20;;;28.30;52.10;;;;;;5034210;28;20196;-71
2022/06/18 08:17:58;;;;;;;2.90;1.20;;;28.40;52.30;;;;;;5034216;28;20172;-72
2022/06/18 08:20:25;;;;;;;1.95;1.30;;;28.60;52.00;;;;;;5033803;28;20334;-72
2022/06/18 08:22:55;;;;;;;5.10;1.20;;;28.70;52.60;;;;;;5034256;28;20212;-71
2022/06/18 08:25:23;;;;;;;1.80;1.20;;;28.80;51.20;;;;;;5034143;28;20161;-70
2022/06/18 08:27:51;;;;;;;3.67;1.30;;;28.90;51.30;;;;;;5033954;28;20221;-72
2022/06/18 08:30:18;;;;;;;2.80;1.25;;;29.30;51.90;;;;;;5033770;28;20272;-71
2022/06/18 08:32:44;;;;;;;9.90;1.58;;;29.50;51.10;;;;;;5033521;28;20161;-72
2022/06/18 08:35:11;;;;;;;2.22;1.17;;;29.60;52.30;;;;;;5034229;28;20236;-71
2022/06/18 08:37:38;;;;;;;2.92;1.20;;;29.50;50.60;;;;;;5032493;28;20200;-71
2022/06/18 08:40:34;;;;;;;4.88;1.80;;;29.40;50.20;;;;;;5034124;28;20214;-72
2022/06/18 08:43:22;;;;;;;2.13;1.30;;;29.50;51.10;;;;;;5033868;28;20653;-75
2022/06/18 08:46:06;;;;;;;3.28;1.50;;;29.50;51.20;;;;;;5033523;28;20166;-70
2022/06/18 08:48:37;;;;;;;2.92;1.40;;;29.80;50.80;;;;;;5033351;28;20163;-68
2022/06/18 08:51:23;;;;;;;3.05;2.20;;;29.50;49.80;;;;;;5033388;28;20282;-72
2022/06/18 08:54:08;;;;;;;1.88;1.33;;;29.50;50.40;;;;;;5032411;28;20234;-71
2022/06/18 08:56:58;;;;;;;2.00;1.25;;;29.70;49.80;;;;;;5033506;28;20165;-70
2022/06/18 08:59:35;;;;;;;2.75;1.67;;;29.60;49.90;;;;;;5032941;28;20186;-72
2022/06/18 09:02:15;;;;;;;1.20;1.10;;;29.50;50.60;;;;;;5033030;28;20204;-72
2022/06/18 09:04:58;;;;;;;1.88;1.50;;;29.90;49.60;;;;;;5033106;28;20628;-72
2022/06/18 09:07:24;;;;;;;1.88;1.50;;;30.00;50.10;;;;;;5033601;28;20227;-72
2022/06/18 09:09:55;;;;;;;2.00;1.48;;;29.90;48.50;;;;;;5033278;28;20598;-72
2022/06/18 09:12:56;;;;;;;1.27;1.17;;;29.90;49.10;;;;;;5034051;28;20315;-71
2022/06/18 09:15:28;;;;;;;1.58;1.48;;;30.00;49.20;;;;;;5032121;28;20185;-71
2022/06/18 09:18:06;;;;;;;1.65;1.25;;;30.30;49.00;;;;;;5034129;28;20631;-74
2022/06/18 09:20:49;;;;;;;1.85;1.23;;;30.20;49.40;;;;;;5034602;28;20201;-71
2022/06/18 09:23:32;;;;;;;1.48;1.20;;;30.20;49.00;;;;;;5034367;28;20280;-71
2022/06/18 09:26:03;;;;;;;2.92;2.10;;;30.20;48.30;;;;;;5037302;28;20191;-72
2022/06/18 09:28:39;;;;;;;1.83;1.60;;;30.50;49.10;;;;;;5037584;28;20180;-72
2022/06/18 09:31:12;;;;;;;3.15;1.40;;;30.40;48.40;;;;;;5038944;28;20511;-70
2022/06/18 09:33:45;;;;;;;1.40;1.30;;;30.50;48.40;;;;;;5041505;28;20601;-71
2022/06/18 09:36:16;;;;;;;1.90;1.20;;;30.60;48.30;;;;;;5045154;28;20597;-71
2022/06/18 09:39:02;;;;;;;1.48;1.38;;;31.00;47.70;;;;;;5042317;28;20161;-72
2022/06/18 09:41:33;;;;;;;4.07;1.30;;;30.60;47.40;;;;;;5042864;28;20212;-73
2022/06/18 09:44:19;;;;;;;1.48;1.38;;;30.50;47.10;;;;;;5034702;28;20199;-71
2022/06/18 09:46:50;;;;;;;2.50;1.35;;;30.70;47.20;;;;;;5033352;28;20161;-72
2022/06/18 09:49:15;;;;;;;2.60;1.42;;;30.70;47.10;;;;;;5033228;28;20168;-71
2022/06/18 09:51:56;;;;;;;1.90;1.48;;;30.60;46.80;;;;;;5033212;28;20239;-72
2022/06/18 09:54:23;;;;;;;3.75;1.55;;;30.60;46.40;;;;;;5028554;28;20180;-73
2022/06/18 09:56:54;;;;;;;1.75;1.38;;;31.00;47.30;;;;;;5031980;28;20184;-70
2022/06/18 09:59:37;;;;;;;1.17;1.08;;;31.10;45.40;;;;;;5032467;28;20165;-71
2022/06/18 10:02:16;;;;;;;2.65;1.35;;;30.70;46.10;;;;;;5032594;28;20507;-71
2022/06/18 10:07:28;;;;;;;1.83;1.48;;;30.90;45.90;;;;;;5032947;28;20164;-72
2022/06/18 10:10:04;;;;;;;4.78;1.60;;;30.90;46.00;;;;;;5032766;28;20504;-73
2022/06/18 10:12:39;;;;;;;1.42;1.30;;;31.20;46.20;;;;;;5033996;28;20167;-71
2022/06/18 10:15:08;;;;;;;2.30;1.50;;;31.20;46.00;;;;;;5037061;28;20192;-72
2022/06/18 10:18:15;;;;;;;2.97;1.52;;;31.60;45.50;;;;;;5036514;28;20219;-72
2022/06/18 10:21:07;;;;;;;3.35;1.33;;;31.60;45.40;;;;;;5036890;28;20227;-72
2022/06/18 10:23:57;;;;;;;5.95;1.45;;;31.60;45.20;;;;;;5037417;28;20172;-72
2022/06/18 10:26:23;;;;;;;2.22;1.38;;;31.60;45.00;;;;;;5037377;28;20487;-71
2022/06/18 10:29:01;;;;;;;2.85;1.60;;;31.70;44.20;;;;;;5037672;28;20175;-72
2022/06/18 10:31:33;;;;;;;5.35;1.70;;;31.70;44.40;;;;;;5038357;28;20165;-72
2022/06/18 10:34:30;;;;;;;1.65;1.55;;;31.60;44.40;;;;;;5039704;28;20161;-70
2022/06/18 10:37:23;;;;;;;1.70;1.52;;;31.50;44.80;;;;;;5045409;28;20655;-72
2022/06/18 10:39:52;;;;;;;1.50;1.40;;;31.70;45.50;;;;;;5042078;28;20286;-72
2022/06/18 10:42:42;;;;;;;2.05;1.33;;;31.70;44.80;;;;;;5040521;28;20169;-72
2022/06/18 10:45:14;;;;;;;5.25;1.40;;;31.70;43.40;;;;;;5042471;28;20244;-73
2022/06/18 10:47:43;;;;;;;1.40;1.30;;;31.80;44.10;;;;;;5041166;28;20288;-71
2022/06/18 10:50:16;;;;;;;4.40;1.38;;;31.80;43.60;;;;;;5042486;28;20165;-71
2022/06/18 10:52:42;;;;;;;3.17;1.85;;;32.10;44.30;;;;;;5040323;28;20199;-72
2022/06/18 10:55:19;;;;;;;3.38;1.42;;;32.20;43.50;;;;;;5038542;28;20169;-71
2022/06/18 10:57:46;;;;;;;6.47;1.40;;;32.10;44.60;;;;;;5041163;28;20184;-71
2022/06/18 11:00:26;;;;;;;3.50;1.67;;;32.60;43.50;;;;;;5045631;28;20227;-71
2022/06/18 11:02:58;;;;;;;3.33;1.50;;;32.40;43.30;;;;;;5042767;28;20173;-69
2022/06/18 11:05:30;;;;;;;3.13;1.70;;;32.20;43.60;;;;;;5036567;28;20271;-72
2022/06/18 11:08:00;;;;;;;3.78;1.50;;;32.20;43.30;;;;;;5036720;28;20176;-72
2022/06/18 11:10:44;;;;;;;2.30;1.48;;;32.50;43.70;;;;;;5036322;28;20226;-72
2022/06/18 11:13:32;;;;;;;1.40;1.30;;;32.60;44.00;;;;;;5035732;28;20165;-72
2022/06/18 11:16:10;;;;;;;1.48;1.38;;;32.90;43.40;;;;;;5033875;28;20205;-71
2022/06/18 11:18:43;;;;;;;1.60;1.50;;;32.90;42.80;;;;;;5036344;28;20157;-71
2022/06/18 11:21:17;;;;;;;2.55;2.08;;;32.70;43.00;;;;;;5034585;28;20679;-74
2022/06/18 11:23:54;;;;;;;2.85;1.67;;;32.60;42.20;;;;;;5034741;28;20171;-73
2022/06/18 11:26:23;;;;;;;4.82;1.83;;;32.70;42.20;;;;;;5035666;28;20228;-72
2022/06/18 11:28:52;;;;;;;4.72;1.90;;;32.90;42.00;;;;;;5035100;28;20157;-72
2022/06/18 11:31:30;;;;;;;2.45;1.60;;;32.90;42.30;;;;;;5035054;28;20180;-71
2022/06/18 11:34:16;;;;;;;6.57;1.80;;;33.00;41.50;;;;;;5035017;28;20230;-72
2022/06/18 11:36:51;;;;;;;3.90;2.00;;;33.00;41.70;;;;;;5033188;28;20165;-71
2022/06/18 11:39:35;;;;;;;2.85;1.83;;;33.00;42.40;;;;;;5034886;28;20541;-71
2022/06/18 11:42:30;;;;;;;2.13;1.50;;;33.20;42.60;;;;;;5034804;28;20554;-71
2022/06/18 11:45:24;;;;;;;5.13;1.77;;;33.50;42.30;;;;;;5034068;28;20234;-71
2022/06/18 11:47:59;;;;;;;9.55;1.77;;;33.40;41.30;;;;;;5034654;28;20173;-70
2022/06/18 11:50:46;;;;;;;3.53;2.00;;;33.40;41.50;;;;;;5034344;28;20167;-70
2022/06/18 11:53:39;;;;;;;3.80;1.95;;;33.30;41.30;;;;;;5034463;28;20161;-69
2022/06/18 11:56:15;;;;;;;7.07;2.35;;;33.50;40.70;;;;;;5034397;28;20336;-71
2022/06/18 11:58:47;;;;;;;6.07;2.00;;;33.40;41.80;;;;;;5034297;28;20169;-71
2022/06/18 12:01:31;;;;;;;3.60;1.70;;;33.60;41.10;;;;;;5034441;28;20220;-71
2022/06/18 12:04:03;;;;;;;4.35;1.90;;;33.40;40.50;;;;;;5032849;28;20180;-71
2022/06/18 12:06:52;;;;;;;3.97;1.70;;;33.60;41.60;;;;;;5034542;28;20231;-70
2022/06/18 12:09:18;;;;;;;8.05;1.92;;;33.70;40.90;;;;;;5034309;28;20566;-71
2022/06/18 12:12:25;;;;;;;5.40;1.83;;;33.50;40.60;;;;;;5033466;28;20181;-72
2022/06/18 12:14:59;;;;;;;6.07;1.98;;;33.60;40.30;;;;;;5014848;28;20219;-72
2022/06/18 12:17:34;;;;;;;2.15;1.70;;;33.60;41.00;;;;;;5034932;28;20593;-72
2022/06/18 12:20:27;;;;;;;8.27;2.25;;;33.70;40.80;;;;;;5034102;28;20216;-72
2022/06/18 12:23:00;;;;;;;9.18;2.25;;;33.80;40.50;;;;;;5034243;28;20161;-71
2022/06/18 12:25:44;;;;;;;5.70;2.65;;;33.90;40.50;;;;;;5034451;28;20242;-70
2022/06/18 12:28:37;;;;;;;6.60;2.60;;;34.20;40.80;;;;;;5034700;28;20274;-71
2022/06/18 12:31:31;;;;;;;2.88;1.75;;;34.40;40.80;;;;;;5034824;28;20572;-69
2022/06/18 12:34:31;;;;;;;3.22;1.90;;;34.00;40.40;;;;;;5033982;28;20513;-72
2022/06/18 12:37:16;;;;;;;3.30;1.92;;;34.10;40.50;;;;;;5034661;28;20364;-74
2022/06/18 12:39:44;;;;;;;5.47;1.90;;;34.20;40.60;;;;;;5036652;28;20624;-72
2022/06/18 12:42:14;;;;;;;3.85;1.95;;;34.10;38.70;;;;;;5039357;28;20161;-72
2022/06/18 12:44:56;;;;;;;5.22;1.90;;;34.10;38.50;;;;;;5040250;28;20248;-72
2022/06/18 12:48:26;;;;;;;3.45;2.03;;;34.00;38.00;;;;;;5039878;28;20285;-74
2022/06/18 12:51:15;;;;;;;5.13;2.33;;;34.30;38.00;;;;;;4959361;28;20274;-71
2022/06/18 12:53:47;;;;;;;3.97;2.00;;;34.10;38.20;;;;;;5034054;28;20180;-73
2022/06/18 12:56:23;;;;;;;5.68;2.28;;;34.20;38.30;;;;;;5033514;28;20165;-70
2022/06/18 12:59:22;;;;;;;6.05;2.38;;;34.20;38.10;;;;;;5033443;28;20169;-71
2022/06/18 13:01:59;;;;;;;7.47;2.95;;;34.10;38.20;;;;;;5033622;28;20234;-72
2022/06/18 13:04:28;;;;;;;9.05;2.30;;;34.40;38.50;;;;;;5033125;28;20238;-71
2022/06/18 13:07:26;;;;;;;6.85;2.72;;;34.70;38.20;;;;;;5033215;28;20223;-70
2022/06/18 13:10:19;;;;;;;8.07;2.38;;;34.70;38.50;;;;;;5033861;28;20161;-72
2022/06/18 13:13:01;;;;;;;5.15;2.40;;;34.60;38.90;;;;;;5031888;28;20250;-72
2022/06/18 13:15:48;;;;;;;5.32;2.08;;;34.70;38.50;;;;;;5033072;28;20226;-73
2022/06/18 13:18:26;;;;;;;4.78;2.17;;;34.80;38.90;;;;;;5032005;28;20606;-72
2022/06/18 13:20:56;;;;;;;11.50;2.28;;;35.00;38.20;;;;;;5032979;28;20545;-73
2022/06/18 13:29:07;;;;;;;8.43;2.60;;;34.90;37.40;;;;;;5032813;28;20179;-71
2022/06/18 13:32:24;;;;;;;6.78;2.20;;;34.80;37.00;;;;;;5033384;28;20160;-70
2022/06/18 13:35:00;;;;;;;10.10;3.25;;;34.60;37.20;;;;;;5015493;28;20196;-71